Sitka, AK

1:19 PM AKDT on August 29, 2014 (GMT -0800)
Kake | Change Station
CLOSE
Current Station
Airport
Location: Kake,
Elevation: 171 ft
Nearby Weather Stations

Elev 171 ft 56.96 °N, 133.91 °W | Updated 3 minutes ago

Overcast
Overcast
54 °F
Feels Like 54 °F
N
6
Wind Variable Wind from SE

Today
High -- | Low -- °F
--% Chance of Precip.
Yesterday
High -- | Low -- °F
Precip. -- in
5:57 AM 8:05 PM
Waxing Crescent, 16% visible
Pressure 29.56 in
Visibility 5.0 miles
Clouds Few 1900 ft
Mostly Cloudy 2600 ft
Overcast 4000 ft
Dew Point 50 °F
Humidity 88%
Rainfall 0.46 in
Snow Depth Not available.
UV 2 out of 12
Pollen Not available.
Air Quality Not available.
Flu Activity Not available.
METAR PAFE 292116Z AUTO 14005KT 5SM FEW019 BKN026 OVC040 12/10 A2956 RMK AO1 P0006

More Conditions Fewer Conditions

Pressure 29.56 in
Visibility 5.0 miles
Clouds Few 1900 ft
Mostly Cloudy 2600 ft
Overcast 4000 ft
Dew Point 50 °F
Humidity 88%
Rainfall 0.46 in
Snow Depth Not available.
UV 2 out of 12
Pollen Not available.
Air Quality Not available.
Flu Activity Not available.
METAR PAFE 292116Z AUTO 14005KT 5SM FEW019 BKN026 OVC040 12/10 A2956 RMK AO1 P0006

More Conditions Fewer Conditions

10-Day Weather Forecast

Almanac

Astronomy

Aug. 29, 2014 Rise Set
Actual Time 5:57 AM AKDT 8:05 PM AKDT
Civil Twilight 5:16 AM AKDT 8:46 PM AKDT
Nautical Twilight 4:23 AM AKDT 9:38 PM AKDT
Astronomical Twilight 3:18 AM AKDT 10:42 PM AKDT
Moon 10:49 AM AKDT 9:09 PM AKDT
Length of Visible Light 15h 30m
Length of Day
14h 07m
Tomorrow will be 4m 44s shorter.
Waxing Crescent, 16% of the Moon is Illuminated
Today
Waxing Crescent
Sep 2
First Quarter
Sep 8
Full
Sep 15
Last Quarter
Sep 24
New

Today's Extremes

State Highs State Lows

Community

WunderPhotos

Upload Photos

1,748,348 photos uploaded!

Nearby

Snow Depth

Station Depth Elevation
Long Lake 0 in 820 ft
Upper Tsaina River 0 in 1750 ft
Moraine 0 in 2100 ft
Grandview 15 in 1100 ft
Grouse Creek Divide 0 in 700 ft

Earthquake Activity

City Distance Mag. Time & Date
No recent earthquake activity has been reported nearby.
Minimum magnitude displayed is 2.5.

Coastal Water Temperatures

Place Temperature
No Stations Reporting

Nearby Weather Stations